createdAt,value
2018-07-16T00:01:22.458Z,99.90
2018-07-16T00:03:53.915Z,99.90
2018-07-16T00:06:25.153Z,99.90
2018-07-16T00:08:56.604Z,99.90
2018-07-16T00:11:27.967Z,99.90
2018-07-16T00:13:59.308Z,99.90
2018-07-16T00:16:30.553Z,99.90
2018-07-16T00:19:02.077Z,99.90
2018-07-16T00:21:33.568Z,99.90
2018-07-16T00:24:05.022Z,99.90
2018-07-16T00:26:36.245Z,99.90
2018-07-16T00:29:07.555Z,99.90
2018-07-16T00:31:39.252Z,99.90
2018-07-16T00:34:10.498Z,99.90
2018-07-16T00:36:41.633Z,99.90
2018-07-16T00:39:13.163Z,99.90
2018-07-16T00:41:45.248Z,99.90
2018-07-16T00:44:16.644Z,99.90
2018-07-16T00:46:48.278Z,99.90
2018-07-16T00:49:19.810Z,99.90
2018-07-16T00:51:51.192Z,99.90
2018-07-16T00:54:22.962Z,99.90
2018-07-16T00:56:54.191Z,99.90
2018-07-16T00:59:25.622Z,99.90
2018-07-16T01:01:56.935Z,99.90
2018-07-16T01:04:28.287Z,99.90
2018-07-16T01:06:59.466Z,99.90
2018-07-16T01:09:30.922Z,99.90
2018-07-16T01:12:02.356Z,99.90
2018-07-16T01:14:33.959Z,99.90
2018-07-16T01:17:05.271Z,99.90
2018-07-16T01:19:36.919Z,99.90
2018-07-16T01:22:08.363Z,99.90
2018-07-16T01:24:39.765Z,99.90
2018-07-16T01:27:11.442Z,99.90
2018-07-16T01:29:42.962Z,99.90
2018-07-16T01:32:14.300Z,99.90
2018-07-16T01:34:45.535Z,99.90
2018-07-16T01:37:16.962Z,99.90
2018-07-16T01:39:48.439Z,99.90
2018-07-16T01:42:19.658Z,99.90
2018-07-16T01:44:51.119Z,99.90
2018-07-16T01:47:22.468Z,99.90
2018-07-16T01:49:53.938Z,99.90
2018-07-16T01:52:25.532Z,99.90
2018-07-16T01:54:56.726Z,99.90
2018-07-16T01:57:28.163Z,99.90
2018-07-16T01:59:59.807Z,99.90
2018-07-16T02:02:31.271Z,99.90
2018-07-16T02:05:02.736Z,99.90
2018-07-16T02:07:33.963Z,99.90
2018-07-16T02:10:05.615Z,99.90
2018-07-16T02:12:36.943Z,99.90
2018-07-16T02:15:08.456Z,99.90
2018-07-16T02:17:39.878Z,99.90
2018-07-16T02:20:11.478Z,99.90
2018-07-16T02:22:42.665Z,99.90
2018-07-16T02:25:14.205Z,99.90
2018-07-16T02:27:45.481Z,99.90
2018-07-16T02:30:17.039Z,99.90
2018-07-16T02:32:48.382Z,99.90
2018-07-16T02:35:19.957Z,99.90
2018-07-16T02:37:51.372Z,99.90
2018-07-16T02:40:22.772Z,99.90
2018-07-16T02:42:54.260Z,99.90
2018-07-16T02:45:25.894Z,99.90
2018-07-16T02:47:57.440Z,99.90
2018-07-16T02:50:29.428Z,99.90
2018-07-16T02:53:00.986Z,99.90
2018-07-16T02:55:32.445Z,99.90
2018-07-16T02:58:03.965Z,99.90
2018-07-16T03:00:35.231Z,99.90
2018-07-16T03:03:06.535Z,99.90
2018-07-16T03:05:38.120Z,99.90
2018-07-16T03:08:09.291Z,99.90
2018-07-16T03:10:40.819Z,99.90
2018-07-16T03:13:12.294Z,99.90
2018-07-16T03:15:43.624Z,99.90
2018-07-16T03:18:15.081Z,99.90
2018-07-16T03:20:46.560Z,99.90
2018-07-16T03:23:18.186Z,99.90
2018-07-16T03:25:49.583Z,99.90
2018-07-16T03:28:20.786Z,99.90
2018-07-16T03:30:52.259Z,99.90
2018-07-16T03:33:23.715Z,99.90
2018-07-16T03:35:54.958Z,99.90
2018-07-16T03:38:26.183Z,99.90
2018-07-16T03:40:57.567Z,99.90
2018-07-16T03:43:29.153Z,99.90
2018-07-16T03:46:00.619Z,99.90
2018-07-16T03:48:32.096Z,99.90
2018-07-16T03:51:03.341Z,99.90
2018-07-16T03:53:34.806Z,99.90
2018-07-16T03:56:06.241Z,99.90
2018-07-16T03:58:37.789Z,99.90
2018-07-16T04:01:09.545Z,99.90
2018-07-16T04:03:41.087Z,99.90
2018-07-16T04:06:12.351Z,99.90
2018-07-16T04:08:43.334Z,99.90
2018-07-16T04:11:14.866Z,99.90
2018-07-16T04:13:46.391Z,99.90
2018-07-16T04:16:17.942Z,99.90
2018-07-16T04:18:49.182Z,99.90
2018-07-16T04:21:20.571Z,99.90
2018-07-16T04:23:52.006Z,99.90
2018-07-16T04:26:23.557Z,99.90
2018-07-16T04:28:54.901Z,99.90
2018-07-16T04:31:26.422Z,99.90
2018-07-16T04:33:57.776Z,99.90
2018-07-16T04:36:29.374Z,99.90
2018-07-16T04:39:01.159Z,99.90
2018-07-16T04:41:32.513Z,99.90
2018-07-16T04:44:03.963Z,99.90
2018-07-16T04:46:35.387Z,99.90
2018-07-16T04:49:06.840Z,99.90
2018-07-16T04:51:38.367Z,99.90
2018-07-16T04:54:09.713Z,99.90
2018-07-16T04:56:41.243Z,99.90
2018-07-16T04:59:12.511Z,99.90
2018-07-16T05:01:44.042Z,99.90
2018-07-16T05:04:15.588Z,99.90
2018-07-16T05:06:46.868Z,99.80
2018-07-16T05:09:18.193Z,99.50
2018-07-16T05:11:49.940Z,99.20
2018-07-16T05:14:21.202Z,99.80
2018-07-16T05:19:23.644Z,99.00
2018-07-16T05:21:54.968Z,98.70
2018-07-16T05:24:26.403Z,98.50
2018-07-16T05:26:58.143Z,98.20
2018-07-16T05:29:29.610Z,97.60
2018-07-16T05:32:00.979Z,97.50
2018-07-16T05:34:32.231Z,97.60
2018-07-16T05:37:03.791Z,97.30
2018-07-16T05:39:35.312Z,96.90
2018-07-16T05:42:06.767Z,96.70
2018-07-16T05:44:38.222Z,96.00
2018-07-16T05:47:10.023Z,95.60
2018-07-16T05:49:41.300Z,95.40
2018-07-16T05:52:12.788Z,95.00
2018-07-16T05:54:44.203Z,94.10
2018-07-16T05:57:15.762Z,93.70
2018-07-16T05:59:46.981Z,93.20
2018-07-16T06:02:18.493Z,92.00
2018-07-16T06:04:50.003Z,90.70
2018-07-16T06:07:21.709Z,90.20
2018-07-16T06:09:53.204Z,89.70
2018-07-16T06:12:24.359Z,88.50
2018-07-16T06:14:55.811Z,88.60
2018-07-16T06:19:57.835Z,86.40
2018-07-16T06:22:29.271Z,83.70
2018-07-16T06:25:00.753Z,82.50
2018-07-16T06:27:32.104Z,79.70
2018-07-16T06:30:03.452Z,80.00
2018-07-16T06:32:35.125Z,76.00
2018-07-16T06:35:06.369Z,72.70
2018-07-16T06:37:38.436Z,73.90
2018-07-16T06:40:09.956Z,72.70
2018-07-16T06:42:41.057Z,72.10
2018-07-16T06:45:12.679Z,72.50
2018-07-16T06:47:44.136Z,72.20
2018-07-16T06:50:15.481Z,71.30
2018-07-16T06:52:46.967Z,72.20
2018-07-16T06:55:18.598Z,70.80
2018-07-16T06:57:49.763Z,69.30
2018-07-16T07:00:21.236Z,67.10
2018-07-16T07:02:52.754Z,66.70
2018-07-16T07:07:55.124Z,67.60
2018-07-16T07:10:26.626Z,66.50
2018-07-16T07:12:58.078Z,69.40
2018-07-16T07:15:29.473Z,69.30
2018-07-16T07:18:00.846Z,70.40
2018-07-16T07:20:32.271Z,70.40
2018-07-16T07:23:03.758Z,70.40
2018-07-16T07:25:35.455Z,70.40
2018-07-16T07:28:06.762Z,73.50
2018-07-16T07:30:38.201Z,72.80
2018-07-16T07:33:09.615Z,75.40
2018-07-16T07:35:41.111Z,79.70
2018-07-16T07:38:12.448Z,81.50
2018-07-16T07:40:43.790Z,84.30
2018-07-16T07:43:15.280Z,85.20
2018-07-16T07:45:46.800Z,85.70
2018-07-16T07:48:18.257Z,83.50
2018-07-16T07:50:49.780Z,81.20
2018-07-16T07:53:21.012Z,77.50
2018-07-16T07:55:52.472Z,74.50
2018-07-16T07:58:23.772Z,73.40
2018-07-16T08:00:55.452Z,72.20
2018-07-16T08:03:26.958Z,71.30
2018-07-16T08:06:03.204Z,69.20
2018-07-16T08:08:35.013Z,70.10
2018-07-16T08:11:07.119Z,70.20
2018-07-16T08:13:38.560Z,69.60
2018-07-16T08:16:09.876Z,69.30
2018-07-16T08:18:41.400Z,68.80
2018-07-16T08:21:12.815Z,68.10
2018-07-16T08:23:44.199Z,66.00
2018-07-16T08:26:15.632Z,67.50
2018-07-16T08:28:47.311Z,66.80
2018-07-16T08:31:18.654Z,65.00
2018-07-16T08:33:50.101Z,64.30
2018-07-16T08:36:21.416Z,63.20
2018-07-16T08:38:52.702Z,63.20
2018-07-16T08:41:24.357Z,63.20
2018-07-16T08:43:55.787Z,62.10
2018-07-16T08:46:27.039Z,59.00
2018-07-16T08:51:29.445Z,58.60
2018-07-16T08:54:00.858Z,58.50
2018-07-16T08:56:32.317Z,60.20
2018-07-16T08:59:04.157Z,58.00
2018-07-16T09:01:35.484Z,56.70
2018-07-16T09:04:07.031Z,56.90
2018-07-16T09:06:38.109Z,56.50
2018-07-16T09:09:09.483Z,57.90
2018-07-16T09:11:40.835Z,57.40
2018-07-16T09:14:12.247Z,57.80
2018-07-16T09:16:43.605Z,57.70
2018-07-16T09:19:15.147Z,58.90
2018-07-16T09:21:46.518Z,60.40
2018-07-16T09:29:19.363Z,60.10
2018-07-16T09:31:50.783Z,60.30
2018-07-16T09:34:22.070Z,60.00
2018-07-16T09:36:53.485Z,59.80
2018-07-16T09:39:25.054Z,58.30
2018-07-16T09:41:56.559Z,58.90
2018-07-16T09:44:28.059Z,57.70
2018-07-16T09:46:59.543Z,57.70
2018-07-16T09:49:31.210Z,57.80
2018-07-16T09:52:02.918Z,59.60
2018-07-16T09:54:34.286Z,60.30
2018-07-16T09:57:05.700Z,60.60
2018-07-16T10:02:12.832Z,62.20
2018-07-16T10:04:44.521Z,64.00
2018-07-16T10:07:15.821Z,64.50
2018-07-16T10:09:47.170Z,65.20
2018-07-16T10:12:18.619Z,66.80
2018-07-16T10:14:50.155Z,66.50
2018-07-16T10:17:21.502Z,67.20
2018-07-16T10:22:23.945Z,69.20
2018-07-16T10:24:55.207Z,68.60
2018-07-16T10:27:26.606Z,68.10
2018-07-16T10:29:58.077Z,68.60
2018-07-16T10:32:29.672Z,69.40
2018-07-16T10:35:01.039Z,69.80
2018-07-16T10:37:32.296Z,70.20
2018-07-16T10:40:03.853Z,70.60
2018-07-16T10:42:35.468Z,71.20
2018-07-16T10:45:07.142Z,69.50
2018-07-16T10:47:38.423Z,69.10
2018-07-16T10:50:09.946Z,68.60
2018-07-16T10:52:41.431Z,68.00
2018-07-16T10:55:13.087Z,68.00
2018-07-16T10:57:44.300Z,69.20
2018-07-16T11:00:15.727Z,65.50
2018-07-16T11:02:47.097Z,64.70
2018-07-16T11:05:18.734Z,63.50
2018-07-16T11:07:50.243Z,63.90
2018-07-16T11:10:21.672Z,64.80
2018-07-16T11:12:52.977Z,65.00
2018-07-16T11:15:24.458Z,65.10
2018-07-16T11:17:55.802Z,64.20
2018-07-16T11:20:27.066Z,63.60
2018-07-16T11:22:58.592Z,64.00
2018-07-16T11:25:30.022Z,63.60
2018-07-16T11:28:01.604Z,64.40
2018-07-16T11:30:33.191Z,63.60
2018-07-16T11:33:04.500Z,63.80
2018-07-16T11:35:35.863Z,62.50
2018-07-16T11:38:07.185Z,63.30
2018-07-16T11:40:38.648Z,62.20
2018-07-16T11:45:40.828Z,63.80
2018-07-16T11:48:12.104Z,63.90
2018-07-16T11:50:43.182Z,63.50
2018-07-16T11:53:14.651Z,63.50
2018-07-16T11:55:46.139Z,65.20
2018-07-16T11:58:17.573Z,66.00
2018-07-16T12:00:48.838Z,65.50
2018-07-16T12:03:20.171Z,65.30
2018-07-16T12:05:51.542Z,63.90
2018-07-16T12:08:23.037Z,65.20
2018-07-16T12:10:54.592Z,67.00
2018-07-16T12:13:25.940Z,66.00
2018-07-16T12:15:57.434Z,66.50
2018-07-16T12:20:59.417Z,66.60
2018-07-16T12:23:31.151Z,65.30
2018-07-16T12:26:02.564Z,64.90
2018-07-16T12:28:34.248Z,67.30
2018-07-16T12:31:06.096Z,68.80
2018-07-16T12:33:37.557Z,68.20
2018-07-16T12:36:09.163Z,65.20
2018-07-16T12:38:40.882Z,64.70
2018-07-16T12:41:12.249Z,66.50
2018-07-16T12:43:43.723Z,65.10
2018-07-16T12:46:15.124Z,65.90
2018-07-16T12:48:46.483Z,65.50
2018-07-16T12:51:17.792Z,67.60
2018-07-16T12:53:48.851Z,67.70
2018-07-16T12:56:20.426Z,68.10
2018-07-16T12:58:51.861Z,66.20
2018-07-16T13:01:23.409Z,66.80
2018-07-16T13:03:54.782Z,67.40
2018-07-16T13:06:26.324Z,66.40
2018-07-16T13:11:28.295Z,65.90
2018-07-16T13:13:59.941Z,65.80
2018-07-16T13:16:31.314Z,66.70
2018-07-16T13:19:02.776Z,66.60
2018-07-16T13:21:34.174Z,65.60
2018-07-16T13:24:05.684Z,66.90
2018-07-16T13:26:36.849Z,68.10
2018-07-16T13:29:08.323Z,68.10
2018-07-16T13:31:40.166Z,68.70
2018-07-16T13:34:11.488Z,66.80
2018-07-16T13:36:43.232Z,66.30
2018-07-16T13:39:14.543Z,67.30
2018-07-16T13:41:45.829Z,68.00
2018-07-16T13:44:17.337Z,68.10
2018-07-16T13:46:48.960Z,68.80
2018-07-16T13:49:20.198Z,68.60
2018-07-16T13:51:51.429Z,69.50
2018-07-16T13:54:22.899Z,70.50
2018-07-16T13:56:54.179Z,69.70
2018-07-16T13:59:25.240Z,70.90
2018-07-16T14:04:27.556Z,71.00
2018-07-16T14:06:59.330Z,71.50
2018-07-16T14:09:30.827Z,70.90
2018-07-16T14:12:02.203Z,70.70
2018-07-16T14:14:33.489Z,71.30
2018-07-16T14:17:05.281Z,69.60
2018-07-16T14:19:36.588Z,70.80
2018-07-16T14:22:08.177Z,71.30
2018-07-16T14:24:39.639Z,72.60
2018-07-16T14:27:10.936Z,71.10
2018-07-16T14:29:42.348Z,71.00
2018-07-16T14:32:13.716Z,70.70
2018-07-16T14:34:45.084Z,70.70
2018-07-16T14:37:16.454Z,71.70
2018-07-16T14:39:47.940Z,71.80
2018-07-16T14:42:19.291Z,73.80
2018-07-16T14:44:50.557Z,72.80
2018-07-16T14:47:22.103Z,72.70
2018-07-16T14:49:53.884Z,73.40
2018-07-16T14:52:25.503Z,72.80
2018-07-16T14:54:56.787Z,75.40
2018-07-16T14:57:28.210Z,76.30
2018-07-16T15:02:30.274Z,76.20
2018-07-16T15:05:01.617Z,76.10
2018-07-16T15:07:33.000Z,76.60
2018-07-16T15:10:04.527Z,76.50
2018-07-16T15:12:36.074Z,76.90
2018-07-16T15:15:07.661Z,75.50
2018-07-16T15:17:39.195Z,74.70
2018-07-16T15:20:10.741Z,77.10
2018-07-16T15:22:42.108Z,76.10
2018-07-16T15:25:13.514Z,75.90
2018-07-16T15:27:44.900Z,76.70
2018-07-16T15:30:16.198Z,77.30
2018-07-16T15:32:47.532Z,79.40
2018-07-16T15:35:18.956Z,81.80
2018-07-16T15:37:50.379Z,83.80
2018-07-16T15:40:21.831Z,84.30
2018-07-16T15:42:53.232Z,86.70
2018-07-16T15:45:24.778Z,87.10
2018-07-16T15:47:56.526Z,88.00
2018-07-16T15:50:28.125Z,88.10
2018-07-16T15:52:59.730Z,85.60
2018-07-16T15:55:31.317Z,86.00
2018-07-16T15:58:03.537Z,86.40
2018-07-16T16:00:35.470Z,85.90
2018-07-16T16:05:38.315Z,84.10
2018-07-16T16:08:09.891Z,83.20
2018-07-16T16:10:41.375Z,84.30
2018-07-16T16:13:12.642Z,84.70
2018-07-16T16:15:43.826Z,85.70
2018-07-16T16:18:15.463Z,87.10
2018-07-16T16:20:46.861Z,87.30
2018-07-16T16:23:18.348Z,88.00
2018-07-16T16:25:49.730Z,88.30
2018-07-16T16:28:21.182Z,87.50
2018-07-16T16:30:52.613Z,88.60
2018-07-16T16:33:24.087Z,89.40
2018-07-16T16:35:55.610Z,88.70
2018-07-16T16:38:27.285Z,89.50
2018-07-16T16:40:58.826Z,90.40
2018-07-16T16:43:30.371Z,91.10
2018-07-16T16:46:02.159Z,91.20
2018-07-16T16:48:33.736Z,91.20
2018-07-16T16:51:05.303Z,91.20
2018-07-16T16:53:36.852Z,91.70
2018-07-16T16:56:08.357Z,92.00
2018-07-16T16:58:39.958Z,92.10
2018-07-16T17:01:11.328Z,92.10
2018-07-16T17:03:42.794Z,92.20
2018-07-16T17:06:14.227Z,92.40
2018-07-16T17:08:45.726Z,92.50
2018-07-16T17:11:17.310Z,93.20
2018-07-16T17:13:48.328Z,93.80
2018-07-16T17:16:20.127Z,94.30
2018-07-16T17:18:51.819Z,94.60
2018-07-16T17:21:23.446Z,94.80
2018-07-16T17:23:54.950Z,95.20
2018-07-16T17:26:26.431Z,95.30
2018-07-16T17:28:57.953Z,95.40
2018-07-16T17:31:29.428Z,95.80
2018-07-16T17:34:01.123Z,96.20
2018-07-16T17:36:32.593Z,96.90
2018-07-16T17:39:05.014Z,97.50
2018-07-16T17:41:36.370Z,98.20
2018-07-16T17:46:38.674Z,99.10
2018-07-16T17:49:10.228Z,99.60
2018-07-16T17:51:41.670Z,99.90
2018-07-16T17:54:13.136Z,99.90
2018-07-16T17:56:44.512Z,99.90
2018-07-16T17:59:16.056Z,99.90
2018-07-16T18:01:47.546Z,99.90
2018-07-16T18:04:18.855Z,99.90
2018-07-16T18:06:50.416Z,99.90
2018-07-16T18:09:21.997Z,99.90
2018-07-16T18:11:53.479Z,99.90
2018-07-16T18:14:25.062Z,99.90
2018-07-16T18:16:56.493Z,99.90
2018-07-16T18:19:28.317Z,99.90
2018-07-16T18:22:00.115Z,99.90
2018-07-16T18:24:31.858Z,99.90
2018-07-16T18:27:03.546Z,99.90
2018-07-16T18:29:35.383Z,99.90
2018-07-16T18:32:07.018Z,99.90
2018-07-16T18:34:38.623Z,99.90
2018-07-16T18:37:10.615Z,99.90
2018-07-16T18:39:42.321Z,99.90
2018-07-16T18:42:13.946Z,99.90
2018-07-16T18:44:45.105Z,99.90
2018-07-16T18:47:16.367Z,99.90
2018-07-16T18:49:50.324Z,99.90
2018-07-16T18:52:21.894Z,99.90
2018-07-16T18:54:53.735Z,99.90
2018-07-16T18:57:25.182Z,99.90
2018-07-16T18:59:56.689Z,99.90
2018-07-16T19:02:28.640Z,99.90
2018-07-16T19:05:00.208Z,99.90
2018-07-16T19:07:31.860Z,99.90
2018-07-16T19:10:03.473Z,99.90
2018-07-16T19:12:35.184Z,99.90
2018-07-16T19:15:15.087Z,99.90
2018-07-16T19:17:46.588Z,99.90
2018-07-16T19:20:18.264Z,99.90
2018-07-16T19:22:49.876Z,99.90
2018-07-16T19:25:21.448Z,99.90
2018-07-16T19:27:53.397Z,99.90
2018-07-16T19:30:25.403Z,99.90
2018-07-16T19:32:57.035Z,99.90
2018-07-16T19:35:29.046Z,99.90
2018-07-16T19:38:00.502Z,99.90
2018-07-16T19:40:32.251Z,99.90
2018-07-16T19:43:03.843Z,99.90
2018-07-16T19:45:35.397Z,99.90
2018-07-16T19:48:06.935Z,99.90
2018-07-16T19:50:38.432Z,99.90
2018-07-16T19:53:09.920Z,99.90
2018-07-16T19:55:41.389Z,99.90
2018-07-16T19:58:12.810Z,99.90
2018-07-16T20:00:44.472Z,99.90
2018-07-16T20:03:15.618Z,99.90
2018-07-16T20:05:46.907Z,99.90
2018-07-16T20:08:18.794Z,99.90
2018-07-16T20:10:50.296Z,99.90
2018-07-16T20:13:21.892Z,99.90
2018-07-16T20:15:53.229Z,99.90
2018-07-16T20:18:24.656Z,99.90
2018-07-16T20:20:58.548Z,99.90
2018-07-16T20:23:29.881Z,99.90
2018-07-16T20:26:01.444Z,99.90
2018-07-16T20:28:33.001Z,99.90
2018-07-16T20:33:35.469Z,99.90
2018-07-16T20:36:07.062Z,99.90
2018-07-16T20:38:38.463Z,99.90
2018-07-16T20:41:10.002Z,99.90
2018-07-16T20:43:41.323Z,99.90
2018-07-16T20:46:12.627Z,99.90
2018-07-16T20:48:44.005Z,99.90
2018-07-16T20:51:15.345Z,99.90
2018-07-16T20:53:46.908Z,99.90
2018-07-16T20:56:18.257Z,99.90
2018-07-16T20:58:49.745Z,99.90
2018-07-16T21:01:21.328Z,99.90
2018-07-16T21:03:52.881Z,99.90
2018-07-16T21:06:24.503Z,99.90
2018-07-16T21:08:56.267Z,99.90
2018-07-16T21:11:27.792Z,99.90
2018-07-16T21:13:59.224Z,99.90
2018-07-16T21:19:01.588Z,99.90
2018-07-16T21:21:32.890Z,99.90
2018-07-16T21:24:04.432Z,99.90
2018-07-16T21:26:35.826Z,99.90
2018-07-16T21:29:07.175Z,99.90
2018-07-16T21:31:38.769Z,99.90
2018-07-16T21:34:10.091Z,99.90
2018-07-16T21:36:41.319Z,99.90
2018-07-16T21:39:12.688Z,99.90
2018-07-16T21:41:44.115Z,99.90
2018-07-16T21:44:15.481Z,99.90
2018-07-16T21:46:46.955Z,99.90
2018-07-16T21:49:18.435Z,99.90
2018-07-16T21:51:49.994Z,99.90
2018-07-16T21:54:21.636Z,99.90
2018-07-16T21:56:53.156Z,99.90
2018-07-16T21:59:24.458Z,99.90
2018-07-16T22:01:55.960Z,99.90
2018-07-16T22:04:27.378Z,99.90
2018-07-16T22:06:58.908Z,99.90
2018-07-16T22:09:30.054Z,99.90
2018-07-16T22:12:01.655Z,99.90
2018-07-16T22:14:32.976Z,99.90
2018-07-16T22:17:04.439Z,99.90
2018-07-16T22:19:35.869Z,99.90
2018-07-16T22:22:07.452Z,99.90
2018-07-16T22:24:38.782Z,99.90
2018-07-16T22:27:10.171Z,99.90
2018-07-16T22:29:41.389Z,99.90
2018-07-16T22:32:12.841Z,99.90
2018-07-16T22:34:44.284Z,99.90
2018-07-16T22:37:16.068Z,99.90
2018-07-16T22:42:18.180Z,99.90
2018-07-16T22:44:49.620Z,99.90
2018-07-16T22:47:21.040Z,99.90
2018-07-16T22:49:52.385Z,99.90
2018-07-16T22:52:23.776Z,99.90
2018-07-16T22:54:55.866Z,99.90
2018-07-16T22:57:27.606Z,99.90
2018-07-16T22:59:59.171Z,99.90
2018-07-16T23:02:30.756Z,99.90
2018-07-16T23:05:02.251Z,99.90
2018-07-16T23:07:33.699Z,99.90
2018-07-16T23:10:05.240Z,99.90
2018-07-16T23:12:36.667Z,99.90
2018-07-16T23:15:08.211Z,99.90
2018-07-16T23:17:39.657Z,99.90
2018-07-16T23:20:10.974Z,99.90
2018-07-16T23:22:53.463Z,99.90
2018-07-16T23:25:24.898Z,99.90
2018-07-16T23:27:56.146Z,99.90
2018-07-16T23:30:28.580Z,99.90
2018-07-16T23:32:59.860Z,99.90
2018-07-16T23:35:31.133Z,99.90
2018-07-16T23:38:02.562Z,99.90
2018-07-16T23:40:33.884Z,99.90
2018-07-16T23:43:05.234Z,99.90
2018-07-16T23:45:36.358Z,99.90
2018-07-16T23:48:08.649Z,99.90
2018-07-16T23:50:40.114Z,99.90
2018-07-16T23:53:11.579Z,99.90
2018-07-16T23:55:43.035Z,99.90
2018-07-16T23:58:14.716Z,99.90
